Time;durP1;ratioP1;P1;durP2;ratioP2;P2;SDS_P1;SDS_P2;PMS_P1;PMS_P2;Temp;Humidity;BMP_temperature;BMP_pressure;BME280_temperature;BME280_humidity;BME280_pressure;Samples;Min_cycle;Max_cycle;Signal;HPM_P1;HPM_P2
2021/12/03 00:01:31;;;;;;;6.37;5.87;;;;;;;2.46;88.88;94589.87;4378107;32;20188;-63
2021/12/03 00:03:56;;;;;;;6.93;6.33;;;;;;;2.58;88.10;94589.63;4377808;32;20222;-63
2021/12/03 00:06:22;;;;;;;6.83;6.23;;;;;;;2.60;87.94;94583.09;4376331;32;20321;-63
2021/12/03 00:08:48;;;;;;;7.27;5.80;;;;;;;2.56;88.55;94591.72;4378350;32;20195;-63
2021/12/03 00:11:14;;;;;;;6.93;5.93;;;;;;;2.46;88.12;94597.75;4381650;32;20188;-63
2021/12/03 00:13:41;;;;;;;6.77;6.17;;;;;;;2.43;88.48;94595.63;4371235;32;20460;-64
2021/12/03 00:16:06;;;;;;;6.70;6.20;;;;;;;2.44;88.31;94599.81;4383780;32;20352;-63
2021/12/03 00:18:32;;;;;;;7.53;6.80;;;;;;;2.40;88.52;94596.94;4380474;32;20281;-63
2021/12/03 00:21:02;;;;;;;6.50;5.90;;;;;;;2.40;87.50;94598.78;4381347;32;20211;-63
2021/12/03 00:23:28;;;;;;;6.87;6.27;;;;;;;2.27;87.75;94607.13;4386054;32;20291;-63
2021/12/03 00:25:54;;;;;;;6.90;6.30;;;;;;;2.31;87.45;94608.94;4392256;32;20276;-63
2021/12/03 00:28:20;;;;;;;7.23;6.53;;;;;;;2.00;87.99;94618.56;4389692;32;20237;-63
2021/12/03 00:30:45;;;;;;;9.17;7.40;;;;;;;2.06;88.68;94616.75;4379457;32;20302;-64
2021/12/03 00:33:12;;;;;;;6.57;6.00;;;;;;;2.11;88.80;94621.19;4380348;32;20189;-64
2021/12/03 00:35:37;;;;;;;7.37;6.77;;;;;;;2.21;88.24;94632.50;4386147;32;20216;-63
2021/12/03 00:38:03;;;;;;;6.20;5.80;;;;;;;2.36;87.81;94639.56;4384081;32;20284;-63
2021/12/03 00:40:32;;;;;;;9.20;6.50;;;;;;;2.30;87.92;94644.00;4384674;32;20240;-63
2021/12/03 00:43:03;;;;;;;7.73;7.03;;;;;;;2.31;87.64;94660.50;4388983;32;20314;-62
2021/12/03 00:45:30;;;;;;;7.27;6.70;;;;;;;2.53;87.20;94660.28;4383582;32;20277;-62
2021/12/03 00:47:55;;;;;;;7.37;6.80;;;;;;;2.56;86.18;94681.50;4381722;32;20354;-62
2021/12/03 00:50:22;;;;;;;7.27;6.67;;;;;;;2.32;87.14;94686.41;4380735;32;20359;-62
2021/12/03 00:52:49;;;;;;;8.20;7.17;;;;;;;2.22;88.32;94686.38;4382075;32;20215;-62
2021/12/03 00:55:16;;;;;;;7.63;6.97;;;;;;;2.03;89.08;94696.50;4380217;32;20355;-62
2021/12/03 00:57:44;;;;;;;8.50;7.70;;;;;;;2.19;89.78;94707.03;4385447;32;20300;-63
2021/12/03 01:00:18;;;;;;;7.57;6.93;;;;;;;2.23;89.23;94708.88;4383029;32;20276;-63
2021/12/03 01:02:43;;;;;;;8.30;7.57;;;;;;;2.19;89.02;94714.88;4383340;32;20285;-62
2021/12/03 01:05:09;;;;;;;9.47;7.80;;;;;;;2.23;88.72;94723.81;4372219;32;20291;-65
2021/12/03 01:07:35;;;;;;;7.93;7.13;;;;;;;2.31;88.38;94726.69;4383746;32;20189;-62
2021/12/03 01:10:01;;;;;;;8.40;7.60;;;;;;;2.25;88.87;94734.81;4383519;32;20214;-62
2021/12/03 01:12:27;;;;;;;8.30;7.50;;;;;;;2.36;88.53;94734.56;4389990;32;20189;-62
2021/12/03 01:14:52;;;;;;;7.53;6.87;;;;;;;2.49;88.42;94735.16;4386050;32;20291;-62
2021/12/03 01:17:22;;;;;;;7.80;7.07;;;;;;;2.44;88.15;94749.00;4374839;32;20207;-62
2021/12/03 01:19:47;;;;;;;7.37;6.67;;;;;;;2.28;88.92;94744.75;4380292;32;20278;-61
2021/12/03 01:22:12;;;;;;;10.13;7.57;;;;;;;2.28;88.41;94742.94;4388379;32;20324;-62
2021/12/03 01:24:38;;;;;;;9.97;7.23;;;;;;;2.16;89.37;94754.63;4381719;32;20189;-61
2021/12/03 01:27:03;;;;;;;7.10;6.60;;;;;;;1.95;89.94;94761.59;4387683;32;20230;-62
2021/12/03 01:29:29;;;;;;;6.93;6.40;;;;;;;2.21;89.41;94768.53;4384946;32;20313;-62
2021/12/03 01:31:56;;;;;;;7.37;6.67;;;;;;;2.12;89.34;94772.66;4387390;32;20232;-62
2021/12/03 01:34:22;;;;;;;7.50;6.83;;;;;;;2.23;89.47;94781.34;4380626;32;20235;-61
2021/12/03 01:36:47;;;;;;;8.23;7.10;;;;;;;2.30;89.00;94792.38;4376631;32;20300;-62
2021/12/03 01:39:13;;;;;;;8.60;7.40;;;;;;;2.15;89.02;94789.69;4382112;32;20278;-65
2021/12/03 01:41:39;;;;;;;8.27;7.57;;;;;;;2.09;88.97;94791.47;4380135;32;20185;-61
2021/12/03 01:44:05;;;;;;;8.10;7.30;;;;;;;2.21;89.02;94799.12;4390951;32;20307;-61
2021/12/03 01:46:31;;;;;;;8.73;7.93;;;;;;;2.11;89.50;94793.84;4382336;32;20196;-62
2021/12/03 01:48:57;;;;;;;9.27;7.70;;;;;;;2.05;90.44;94801.69;4382700;32;20193;-61
2021/12/03 01:51:23;;;;;;;8.27;7.47;;;;;;;2.04;90.40;94799.31;4381390;32;20307;-62
2021/12/03 01:53:49;;;;;;;8.43;7.70;;;;;;;2.08;90.32;94793.28;4380615;32;20252;-61
2021/12/03 01:56:17;;;;;;;7.25;6.65;;;;;;;2.21;89.96;94793.91;4390701;32;20184;-62
2021/12/03 01:58:47;;;;;;;7.60;6.90;;;;;;;2.31;88.44;94778.25;4385647;32;20188;-62
2021/12/03 02:01:16;;;;;;;7.20;6.50;;;;;;;2.27;87.70;94787.66;4377056;32;20278;-61
2021/12/03 02:03:46;;;;;;;8.07;7.37;;;;;;;2.49;88.00;94788.28;4372549;32;20292;-62
2021/12/03 02:06:13;;;;;;;8.07;7.40;;;;;;;2.34;87.56;94799.47;4383536;32;20276;-62
2021/12/03 02:08:40;;;;;;;8.47;7.60;;;;;;;2.50;86.76;94795.06;4382276;32;20291;-61
2021/12/03 02:11:07;;;;;;;8.67;7.87;;;;;;;2.37;87.72;94790.31;4387841;32;20329;-62
2021/12/03 02:13:33;;;;;;;8.17;7.47;;;;;;;2.32;88.37;94785.84;4380117;32;20279;-61
2021/12/03 02:16:00;;;;;;;8.03;7.20;;;;;;;2.43;88.33;94794.53;4378423;32;21632;-62
2021/12/03 02:18:25;;;;;;;7.57;6.87;;;;;;;2.36;88.07;94789.53;4369804;32;20292;-62
2021/12/03 02:20:56;;;;;;;7.97;7.17;;;;;;;2.38;88.50;94792.69;4375500;32;20299;-62
2021/12/03 02:23:22;;;;;;;7.77;7.07;;;;;;;2.42;88.43;94785.13;4384275;32;20207;-61
2021/12/03 02:25:49;;;;;;;8.63;7.93;;;;;;;2.19;88.90;94785.53;4382618;32;20284;-62
2021/12/03 02:28:16;;;;;;;9.13;7.73;;;;;;;2.30;88.69;94794.97;4387479;32;20379;-62
2021/12/03 02:30:43;;;;;;;8.43;7.63;;;;;;;2.27;88.68;94795.50;4387340;32;20318;-61
2021/12/03 02:33:09;;;;;;;8.50;7.37;;;;;;;2.21;88.11;94796.53;4371955;32;20356;-61
2021/12/03 02:35:38;;;;;;;7.50;6.90;;;;;;;2.14;88.27;94796.75;4390069;32;20304;-61
2021/12/03 02:38:03;;;;;;;8.20;7.43;;;;;;;2.16;88.53;94801.72;4385514;32;20333;-61
2021/12/03 02:40:29;;;;;;;7.97;7.17;;;;;;;2.16;88.15;94801.72;4386801;32;20316;-61
2021/12/03 02:42:54;;;;;;;7.50;6.80;;;;;;;2.16;88.91;94801.72;4384342;32;20211;-62
2021/12/03 02:45:20;;;;;;;8.17;7.37;;;;;;;2.06;89.26;94805.88;4388363;32;20185;-62
2021/12/03 02:47:46;;;;;;;7.87;7.17;;;;;;;2.23;89.11;94821.41;4379978;32;20210;-61
2021/12/03 02:50:13;;;;;;;7.93;7.23;;;;;;;2.15;88.54;94813.22;4387262;32;20348;-62
2021/12/03 02:52:39;;;;;;;7.87;7.17;;;;;;;2.36;88.28;94818.31;4381783;32;20176;-62
2021/12/03 02:55:05;;;;;;;8.10;7.40;;;;;;;2.19;88.23;94815.09;4379759;32;20280;-62
2021/12/03 02:57:31;;;;;;;8.23;7.53;;;;;;;2.23;88.36;94828.47;4384339;32;20329;-62
2021/12/03 02:59:56;;;;;;;7.47;6.87;;;;;;;2.18;88.81;94838.88;4379422;32;20286;-62
2021/12/03 03:02:22;;;;;;;7.67;6.97;;;;;;;2.14;88.81;94838.59;4383010;32;20280;-61
2021/12/03 03:04:47;;;;;;;7.73;7.13;;;;;;;2.18;88.51;94844.91;4379955;32;20208;-61
2021/12/03 03:07:13;;;;;;;9.07;6.80;;;;;;;2.11;88.72;94835.69;4382342;32;20199;-61
2021/12/03 03:09:42;;;;;;;7.87;7.17;;;;;;;2.17;88.82;94840.72;4376803;32;20188;-61
2021/12/03 03:12:08;;;;;;;7.33;6.63;;;;;;;2.03;89.33;94842.97;4385630;32;20180;-61
2021/12/03 03:14:33;;;;;;;7.77;7.07;;;;;;;2.10;89.25;94847.19;4380581;32;20295;-61
2021/12/03 03:16:59;;;;;;;8.23;7.53;;;;;;;1.90;89.95;94848.63;4380954;32;20339;-61
2021/12/03 03:19:24;;;;;;;7.77;7.10;;;;;;;1.97;90.01;94851.81;4382277;32;20227;-61
2021/12/03 03:21:50;;;;;;;7.87;7.10;;;;;;;2.18;89.00;94857.97;4379977;32;20189;-61
2021/12/03 03:24:17;;;;;;;7.60;7.00;;;;;;;2.08;89.20;94859.75;4381546;32;20192;-61
2021/12/03 03:26:45;;;;;;;7.30;6.67;;;;;;;2.20;89.63;94865.59;4384685;32;20180;-61
2021/12/03 03:29:13;;;;;;;7.73;7.03;;;;;;;2.28;88.28;94862.50;4383754;32;20307;-61
2021/12/03 03:31:39;;;;;;;6.90;6.30;;;;;;;2.15;88.25;94861.09;4380326;32;20323;-61
2021/12/03 03:34:06;;;;;;;8.03;6.63;;;;;;;1.96;89.13;94855.47;4381863;32;20339;-61
2021/12/03 03:36:33;;;;;;;6.70;6.20;;;;;;;2.03;88.52;94860.50;4378922;32;20193;-61
2021/12/03 03:38:59;;;;;;;7.45;6.75;;;;;;;2.02;88.80;94859.72;4376326;32;20299;-61
2021/12/03 03:41:24;;;;;;;7.30;6.60;;;;;;;2.01;89.25;94858.13;4378573;32;20192;-61
2021/12/03 03:43:50;;;;;;;7.10;6.50;;;;;;;1.92;89.20;94870.09;4378804;32;20219;-63
2021/12/03 03:46:16;;;;;;;6.77;6.17;;;;;;;1.92;89.97;94885.78;4381042;32;20184;-64
2021/12/03 03:48:41;;;;;;;6.83;6.30;;;;;;;1.92;89.45;94872.69;4384572;32;20228;-64
2021/12/03 03:51:06;;;;;;;7.27;6.63;;;;;;;2.05;89.48;94880.16;4369481;32;20188;-63
2021/12/03 03:53:32;;;;;;;8.70;6.63;;;;;;;2.04;89.96;94870.72;4379519;32;20193;-61
2021/12/03 03:55:57;;;;;;;6.97;6.40;;;;;;;1.98;90.27;94865.69;4375456;32;20249;-62
2021/12/03 03:58:22;;;;;;;6.57;6.03;;;;;;;2.08;89.33;94871.78;4380542;32;20233;-62
2021/12/03 04:00:48;;;;;;;6.43;5.93;;;;;;;2.07;89.25;94887.75;4388184;32;20175;-62
2021/12/03 04:03:13;;;;;;;6.87;6.27;;;;;;;1.94;89.83;94881.09;4387992;32;20203;-62
2021/12/03 04:05:40;;;;;;;6.50;6.00;;;;;;;1.88;90.44;94883.91;4380388;32;20208;-62
2021/12/03 04:08:07;;;;;;;6.43;5.93;;;;;;;2.10;89.64;94879.37;4383397;32;20225;-62
2021/12/03 04:10:32;;;;;;;7.57;6.40;;;;;;;2.06;89.10;94880.94;4385955;32;20284;-62
2021/12/03 04:12:58;;;;;;;6.33;5.83;;;;;;;1.87;90.14;94888.34;4370267;32;20335;-63
2021/12/03 04:15:23;;;;;;;6.87;6.27;;;;;;;2.06;90.14;94884.34;4388496;32;20192;-62
2021/12/03 04:17:49;;;;;;;7.60;6.70;;;;;;;1.93;90.07;94887.34;4389437;32;20199;-62
2021/12/03 04:20:17;;;;;;;7.20;6.50;;;;;;;2.05;90.53;94895.84;4386624;32;20196;-62
2021/12/03 04:22:42;;;;;;;7.60;6.87;;;;;;;1.95;90.63;94895.75;4385784;32;20276;-63
2021/12/03 04:25:11;;;;;;;7.10;6.37;;;;;;;1.87;91.65;94896.19;4385504;32;20277;-62
2021/12/03 04:27:37;;;;;;;7.75;7.05;;;;;;;1.94;92.39;94901.22;4377575;32;20193;-63
2021/12/03 04:30:07;;;;;;;7.03;6.50;;;;;;;1.73;92.15;94902.87;4383863;32;20240;-62
2021/12/03 04:32:32;;;;;;;6.72;6.22;;;;;;;1.80;92.00;94906.09;4384977;32;20185;-62
2021/12/03 04:34:58;;;;;;;5.97;5.47;;;;;;;1.71;91.58;94915.41;4384352;32;20202;-62
2021/12/03 04:37:24;;;;;;;6.00;5.60;;;;;;;1.73;90.75;94913.34;4383194;32;20197;-62
2021/12/03 04:39:51;;;;;;;5.60;5.12;;;;;;;1.76;91.01;94918.06;4371122;32;20224;-62
2021/12/03 04:42:17;;;;;;;6.93;6.33;;;;;;;1.89;90.57;94916.87;4383955;32;20184;-62
2021/12/03 04:44:42;;;;;;;7.10;6.50;;;;;;;1.69;91.36;94920.88;4385081;32;20290;-62
2021/12/03 04:47:07;;;;;;;5.77;5.20;;;;;;;1.58;91.51;94923.66;4386599;32;20184;-62
2021/12/03 04:49:33;;;;;;;7.77;7.07;;;;;;;1.76;91.66;94928.53;4383359;32;20205;-62
2021/12/03 04:51:58;;;;;;;6.80;6.23;;;;;;;1.92;90.77;94927.63;4383120;32;20258;-62
2021/12/03 04:54:25;;;;;;;6.07;5.47;;;;;;;1.78;90.94;94931.69;4384373;32;20203;-62
2021/12/03 04:56:51;;;;;;;7.40;5.82;;;;;;;1.85;91.14;94934.09;4383138;32;20263;-62
2021/12/03 04:59:16;;;;;;;6.70;6.10;;;;;;;1.88;90.14;94937.00;4387070;32;20181;-62
2021/12/03 05:01:41;;;;;;;6.10;5.60;;;;;;;2.04;89.82;94943.16;4384587;32;20199;-62
2021/12/03 05:04:07;;;;;;;5.83;5.23;;;;;;;2.10;89.25;94943.97;4382974;32;20185;-62
2021/12/03 05:09:16;;;;;;;5.72;5.20;;;;;;;2.13;87.62;94951.31;4387325;32;20207;-62
2021/12/03 05:11:42;;;;;;;5.17;4.77;;;;;;;2.23;87.04;94959.28;4377855;32;20185;-62
2021/12/03 05:14:07;;;;;;;5.40;5.00;;;;;;;2.26;86.46;94953.53;4386608;32;20238;-62
2021/12/03 05:16:32;;;;;;;5.83;5.33;;;;;;;2.37;86.18;94966.44;4379958;32;20189;-62
2021/12/03 05:18:58;;;;;;;6.30;5.70;;;;;;;2.22;86.47;94974.19;4385623;32;20184;-63
2021/12/03 05:21:23;;;;;;;5.73;5.23;;;;;;;2.22;86.19;94973.41;4381476;32;20211;-62
2021/12/03 05:23:48;;;;;;;7.57;5.10;;;;;;;2.11;87.03;94977.75;4373073;32;20189;-62
2021/12/03 05:26:13;;;;;;;5.40;5.00;;;;;;;1.87;88.42;94981.72;4374627;32;20185;-63
2021/12/03 05:28:39;;;;;;;5.30;5.00;;;;;;;2.06;87.49;94975.09;4382442;32;20185;-62
2021/12/03 05:31:04;;;;;;;5.57;5.07;;;;;;;2.23;87.09;94981.00;4382581;32;20223;-62
2021/12/03 05:33:29;;;;;;;5.50;5.00;;;;;;;2.00;86.96;94986.53;4387648;32;20271;-64
2021/12/03 05:35:55;;;;;;;5.37;5.07;;;;;;;2.04;87.40;94990.25;4381308;32;20241;-64
2021/12/03 05:38:20;;;;;;;5.17;4.80;;;;;;;1.96;86.77;94998.53;4379924;32;20204;-64
2021/12/03 05:40:45;;;;;;;6.87;5.13;;;;;;;2.04;86.73;94998.09;4382525;32;20200;-62
2021/12/03 05:43:11;;;;;;;5.57;5.13;;;;;;;2.12;86.78;94997.62;4385390;32;20219;-61
2021/12/03 05:45:36;;;;;;;5.60;5.10;;;;;;;2.20;87.09;95006.88;4385104;32;20218;-61
2021/12/03 05:48:02;;;;;;;5.70;5.20;;;;;;;2.13;87.16;95012.28;4389658;32;20291;-61
2021/12/03 05:50:28;;;;;;;5.63;5.10;;;;;;;2.18;86.86;95014.16;4373460;32;20193;-61
2021/12/03 05:52:57;;;;;;;5.97;5.40;;;;;;;1.98;86.87;95022.63;4375958;32;20189;-62
2021/12/03 05:55:23;;;;;;;5.30;4.87;;;;;;;1.98;87.32;95028.62;4383380;32;20364;-61
2021/12/03 05:57:48;;;;;;;5.70;5.30;;;;;;;2.21;86.77;95019.69;4382432;32;20292;-61
2021/12/03 06:00:17;;;;;;;6.13;5.73;;;;;;;2.12;87.54;95030.84;4384245;32;20237;-61
2021/12/03 06:02:43;;;;;;;5.13;4.77;;;;;;;2.15;87.13;95027.75;4385958;32;20185;-62
2021/12/03 06:05:09;;;;;;;5.97;5.57;;;;;;;2.18;87.22;95040.31;4381678;32;20281;-61
2021/12/03 06:07:34;;;;;;;5.80;5.30;;;;;;;2.15;87.13;95046.84;4376186;32;20295;-63
2021/12/03 06:09:59;;;;;;;6.43;5.93;;;;;;;2.10;87.21;95043.38;4376481;32;20279;-63
2021/12/03 06:12:25;;;;;;;6.33;5.90;;;;;;;1.97;88.22;95055.81;4380818;32;20239;-63
2021/12/03 06:14:50;;;;;;;6.27;5.67;;;;;;;2.14;87.44;95054.94;4373974;32;20200;-63
2021/12/03 06:17:15;;;;;;;6.60;6.00;;;;;;;2.17;87.23;95059.69;4378616;32;20216;-63
2021/12/03 06:19:42;;;;;;;6.43;5.93;;;;;;;2.28;87.13;95067.41;4374720;32;20243;-62
2021/12/03 06:22:08;;;;;;;6.67;6.17;;;;;;;2.19;86.79;95071.47;4377204;32;20193;-62
2021/12/03 06:24:36;;;;;;;6.47;5.97;;;;;;;2.12;87.24;95068.25;4383361;32;20351;-63
2021/12/03 06:27:02;;;;;;;6.33;5.83;;;;;;;2.14;86.95;95068.00;4391099;32;20288;-62
2021/12/03 06:29:27;;;;;;;6.60;6.10;;;;;;;2.00;87.61;95065.78;4386036;32;20310;-62
2021/12/03 06:31:52;;;;;;;6.20;5.70;;;;;;;2.18;87.06;95071.72;4388468;32;20196;-62
2021/12/03 06:34:18;;;;;;;7.30;6.17;;;;;;;1.98;87.25;95078.31;4379095;32;20268;-62
2021/12/03 06:36:43;;;;;;;7.17;6.67;;;;;;;2.06;87.99;95079.72;4380404;32;20264;-62
2021/12/03 06:39:09;;;;;;;6.30;5.70;;;;;;;1.92;87.68;95084.53;4375449;32;20180;-62
2021/12/03 06:41:34;;;;;;;7.33;6.63;;;;;;;1.96;87.84;95082.22;4384867;32;20188;-61
2021/12/03 06:44:00;;;;;;;7.60;6.90;;;;;;;1.94;88.12;95087.69;4380966;32;20276;-62
2021/12/03 06:46:25;;;;;;;7.70;6.77;;;;;;;1.97;88.39;95087.22;4381872;32;20193;-61
2021/12/03 06:48:51;;;;;;;8.27;7.07;;;;;;;1.95;88.17;95089.28;4383855;32;20298;-61
2021/12/03 06:51:16;;;;;;;7.33;6.67;;;;;;;2.07;88.27;95086.53;4379432;32;20192;-61
2021/12/03 06:53:54;;;;;;;7.20;6.43;;;;;;;2.12;87.12;95093.63;4384850;32;20265;-62
2021/12/03 06:56:21;;;;;;;6.70;6.17;;;;;;;2.11;87.51;95098.06;4385666;32;20219;-61
2021/12/03 06:58:48;;;;;;;7.43;6.83;;;;;;;2.14;86.94;95102.81;4383818;32;20300;-61
2021/12/03 07:01:14;;;;;;;8.10;6.43;;;;;;;1.98;87.67;95106.31;4373775;32;20273;-61
2021/12/03 07:03:39;;;;;;;8.43;6.23;;;;;;;2.03;87.14;95109.78;4379286;32;20281;-61
2021/12/03 07:06:05;;;;;;;7.70;7.07;;;;;;;2.08;86.62;95119.47;4385903;32;20302;-61
2021/12/03 07:08:30;;;;;;;6.40;5.90;;;;;;;1.97;86.68;95129.06;4383123;32;20287;-61
2021/12/03 07:10:55;;;;;;;6.53;6.03;;;;;;;1.92;86.45;95136.03;4384133;32;20255;-61
2021/12/03 07:13:20;;;;;;;7.30;6.70;;;;;;;1.91;86.57;95140.47;4376151;32;20228;-61
2021/12/03 07:15:46;;;;;;;7.23;6.50;;;;;;;1.89;86.24;95136.53;4377717;32;20196;-61
2021/12/03 07:18:11;;;;;;;7.87;7.17;;;;;;;1.62;87.26;95149.53;4378300;32;20281;-61
2021/12/03 07:20:37;;;;;;;12.93;8.27;;;;;;;1.70;87.66;95141.25;4383872;32;20242;-61
2021/12/03 07:23:02;;;;;;;41.33;7.50;;;;;;;1.87;87.32;95143.84;4378780;32;20263;-59
2021/12/03 07:25:28;;;;;;;22.97;12.17;;;;;;;5.19;100.00;95131.41;4383883;32;20211;-58
2021/12/03 07:27:53;;;;;;;9.37;6.33;;;;;;;7.87;100.00;95134.47;4385655;32;20181;-59
2021/12/03 07:30:19;;;;;;;5.97;5.33;;;;;;;8.67;85.79;95138.28;4382763;32;20272;-59
2021/12/03 07:32:46;;;;;;;7.13;5.07;;;;;;;9.75;72.35;95145.06;4376517;32;20199;-58
2021/12/03 07:35:12;;;;;;;6.83;5.27;;;;;;;10.43;64.91;95144.31;4384897;32;20281;-58
2021/12/03 07:37:38;;;;;;;5.47;5.00;;;;;;;10.66;61.86;95147.81;4392689;32;20283;-59
2021/12/03 07:40:05;;;;;;;4.70;4.30;;;;;;;11.39;59.29;95146.72;4392894;32;20332;-57
2021/12/03 07:42:32;;;;;;;4.70;4.17;;;;;;;11.41;56.37;95149.88;4387264;32;20354;-58
2021/12/03 07:44:57;;;;;;;5.53;5.13;;;;;;;11.43;56.26;95146.91;4388802;32;20221;-58
2021/12/03 07:47:22;;;;;;;5.67;5.20;;;;;;;11.39;55.55;95148.59;4389022;32;20192;-58
2021/12/03 07:49:50;;;;;;;5.43;4.90;;;;;;;11.41;54.62;95155.19;4379156;32;20199;-58
2021/12/03 07:52:16;;;;;;;4.87;4.57;;;;;;;11.31;55.14;95166.03;4385162;32;20208;-58
2021/12/03 07:54:42;;;;;;;6.23;4.63;;;;;;;11.30;54.62;95159.16;4385943;32;20222;-59
2021/12/03 07:57:07;;;;;;;5.27;4.57;;;;;;;11.26;53.45;95174.09;4386769;32;20185;-58
2021/12/03 07:59:32;;;;;;;5.00;4.60;;;;;;;11.27;54.09;95175.69;4385118;32;20245;-58
2021/12/03 08:01:58;;;;;;;5.43;4.93;;;;;;;11.25;53.78;95178.63;4387487;32;20189;-58
2021/12/03 08:04:23;;;;;;;4.93;4.60;;;;;;;11.23;53.67;95186.13;4379917;32;20253;-57
2021/12/03 08:06:52;;;;;;;5.23;4.73;;;;;;;11.40;53.02;95185.47;4385310;32;20210;-58
2021/12/03 08:09:18;;;;;;;5.33;4.87;;;;;;;10.96;53.22;95186.22;4384702;32;20193;-58
2021/12/03 08:11:43;;;;;;;5.10;4.80;;;;;;;11.07;53.74;95198.16;4387759;32;20196;-58
2021/12/03 08:14:08;;;;;;;4.80;4.40;;;;;;;10.78;53.27;95195.09;4390505;32;20184;-58
2021/12/03 08:16:34;;;;;;;5.13;4.60;;;;;;;10.99;52.61;95191.72;4373801;32;20208;-58
2021/12/03 08:18:59;;;;;;;4.63;4.30;;;;;;;10.75;52.57;95198.34;4380698;32;20206;-58
2021/12/03 08:21:24;;;;;;;4.40;4.00;;;;;;;11.11;52.13;95195.69;4378909;32;20234;-58
2021/12/03 08:23:50;;;;;;;4.10;3.80;;;;;;;11.13;51.55;95196.19;4381467;32;20246;-58
2021/12/03 08:26:16;;;;;;;4.67;4.27;;;;;;;10.85;51.45;95196.25;4386417;32;20189;-59
2021/12/03 08:28:42;;;;;;;4.37;4.07;;;;;;;10.79;51.57;95194.78;4383646;32;20303;-59
2021/12/03 08:31:13;;;;;;;4.40;4.10;;;;;;;10.80;51.68;95201.69;4383603;32;20250;-58
2021/12/03 08:33:39;;;;;;;5.50;5.10;;;;;;;10.88;51.25;95206.25;4380029;32;20192;-60
2021/12/03 08:36:04;;;;;;;5.70;5.23;;;;;;;9.08;52.00;95204.63;4379001;32;20284;-59
2021/12/03 08:38:30;;;;;;;6.20;5.70;;;;;;;7.31;57.44;95207.25;4380813;32;20306;-60
2021/12/03 08:40:55;;;;;;;5.77;5.37;;;;;;;5.74;64.37;95213.97;4379100;32;20196;-60
2021/12/03 08:43:20;;;;;;;7.13;5.30;;;;;;;4.75;67.90;95205.50;4382255;32;20215;-59
2021/12/03 08:45:48;;;;;;;7.50;6.80;;;;;;;4.26;70.88;95217.38;4378493;32;20250;-60
2021/12/03 08:48:13;;;;;;;5.97;5.57;;;;;;;3.80;73.23;95225.00;4380158;32;20185;-60
2021/12/03 08:50:50;;;;;;;5.67;5.17;;;;;;;3.48;74.63;95222.44;4382132;32;20306;-59
2021/12/03 08:55:59;;;;;;;6.00;5.60;;;;;;;3.47;76.49;95218.22;4388762;32;20347;-60
2021/12/03 08:58:26;;;;;;;6.83;6.23;;;;;;;3.33;76.69;95220.47;4381481;32;20281;-60
2021/12/03 09:00:51;;;;;;;6.33;5.73;;;;;;;3.23;77.00;95230.09;4375600;32;20209;-61
2021/12/03 09:03:17;;;;;;;6.63;5.97;;;;;;;3.20;78.09;95236.63;4374207;32;20292;-60
2021/12/03 09:05:44;;;;;;;6.47;5.97;;;;;;;3.12;77.91;95236.28;4383695;32;20243;-60
2021/12/03 09:08:09;;;;;;;6.60;6.00;;;;;;;3.07;78.33;95231.78;4382984;32;20189;-60
2021/12/03 09:10:35;;;;;;;7.07;6.53;;;;;;;3.10;78.25;95236.53;4381996;32;20284;-61
2021/12/03 09:13:00;;;;;;;6.63;6.03;;;;;;;3.01;79.09;95235.38;4381593;32;20331;-61
2021/12/03 09:15:31;;;;;;;6.63;6.03;;;;;;;2.88;79.40;95247.06;4382564;32;20201;-62
2021/12/03 09:25:55;;;;;;;6.83;6.13;;;;;;;3.36;77.99;95243.56;4357412;32;20273;-60
2021/12/03 09:28:26;;;;;;;8.43;6.03;;;;;;;3.43;77.71;95246.78;4365761;32;20196;-60
2021/12/03 09:30:51;;;;;;;5.90;5.40;;;;;;;3.11;79.09;95253.84;4376327;32;20301;-60
2021/12/03 09:33:19;;;;;;;6.10;5.57;;;;;;;3.31;78.33;95251.41;4369276;32;20278;-61
2021/12/03 09:35:47;;;;;;;5.53;5.10;;;;;;;3.19;78.37;95245.50;4370956;32;20244;-61
2021/12/03 09:38:13;;;;;;;5.70;5.10;;;;;;;3.29;77.82;95244.81;4368270;32;20350;-61
2021/12/03 09:40:39;;;;;;;5.30;4.90;;;;;;;3.56;76.94;95244.75;4370064;32;20277;-63
2021/12/03 09:43:06;;;;;;;6.37;5.80;;;;;;;3.73;75.81;95235.72;4376235;32;20221;-60
2021/12/03 09:45:31;;;;;;;6.47;5.87;;;;;;;3.72;76.31;95239.41;4373541;32;20299;-60
2021/12/03 09:47:58;;;;;;;9.17;6.27;;;;;;;3.70;75.25;95240.69;4368711;32;20273;-60
2021/12/03 09:50:23;;;;;;;5.33;4.93;;;;;;;3.90;75.50;95240.03;4374367;32;20202;-60
2021/12/03 09:55:33;;;;;;;5.50;5.07;;;;;;;3.84;75.01;95233.97;4376140;32;20248;-60
2021/12/03 09:58:30;;;;;;;4.83;4.50;;;;;;;3.93;74.27;95234.28;4373070;32;20280;-60
2021/12/03 10:00:52;;;;;;;5.23;4.83;;;;;;;3.65;74.00;95243.28;4371854;32;20210;-59
2021/12/03 10:03:41;;;;;;;4.77;4.47;;;;;;;3.78;73.78;95237.59;4376318;32;20284;-60
2021/12/03 10:14:37;;;;;;;5.17;4.70;;;;;;;3.41;75.34;95222.63;4362046;32;20276;-60
2021/12/03 10:17:39;;;;;;;4.20;3.90;;;;;;;3.32;71.84;95211.03;4380513;32;20363;-59
2021/12/03 10:28:37;;;;;;;3.80;3.50;;;;;;;3.23;70.93;95206.50;4366388;32;20288;-63
2021/12/03 10:31:00;;;;;;;3.50;3.30;;;;;;;3.47;70.62;95206.94;4361167;32;20285;-63
2021/12/03 10:33:53;;;;;;;4.20;3.90;;;;;;;3.43;69.32;95204.03;4368052;32;20289;-64
2021/12/03 10:39:16;;;;;;;3.27;3.07;;;;;;;3.56;68.17;95189.69;4373466;32;20369;-61
2021/12/03 10:44:51;;;;;;;3.77;3.47;;;;;;;3.99;66.31;95191.25;4373518;32;20339;-63
2021/12/03 10:53:08;;;;;;;3.93;3.63;;;;;;;3.77;66.56;95183.53;4367791;32;20349;-61
2021/12/03 12:47:00;;;;;;;3.30;3.10;;;;;;;3.58;67.18;95145.66;4373349;32;20357;-60
2021/12/03 12:57:36;;;;;;;4.13;3.27;;;;;;;3.71;66.68;95132.09;4380074;32;20298;-62
2021/12/03 13:16:09;;;;;;;3.03;2.83;;;;;;;3.62;65.76;95129.16;4373844;32;20322;-62
2021/12/03 13:26:53;;;;;;;3.23;2.97;;;;;;;3.14;66.82;95138.03;4375210;32;20329;-62
2021/12/03 14:18:54;;;;;;;4.73;3.37;;;;;;;3.47;68.67;95120.44;4371784;32;20288;-62
2021/12/03 14:41:44;;;;;;;3.93;3.13;;;;;;;3.45;67.15;95116.22;4372901;32;20401;-61
2021/12/03 14:54:47;;;;;;;4.03;3.73;;;;;;;3.32;68.49;95118.50;4361649;32;20285;-61
2021/12/03 15:00:15;;;;;;;3.60;3.40;;;;;;;3.68;67.63;95120.28;4367562;32;20272;-60
2021/12/03 15:08:27;;;;;;;3.33;3.13;;;;;;;3.37;68.04;95126.38;4357262;32;20294;-64
2021/12/03 15:11:45;;;;;;;3.53;3.23;;;;;;;3.41;68.24;95128.25;4379219;32;20320;-60
2021/12/03 15:19:16;;;;;;;3.93;3.30;;;;;;;3.98;66.66;95122.25;4382084;32;20410;-60
2021/12/03 15:29:58;;;;;;;5.97;3.60;;;;;;;3.81;67.49;95119.03;4379477;32;20203;-60
2021/12/03 15:32:54;;;;;;;6.03;3.53;;;;;;;3.89;67.15;95117.75;4380562;32;20291;-64
2021/12/03 15:35:45;;;;;;;3.80;3.50;;;;;;;3.87;67.24;95117.22;4384459;32;20284;-61
2021/12/03 16:20:56;;;;;;;4.13;3.13;;;;;;;3.80;68.32;95104.31;4383460;32;20272;-59
2021/12/03 16:45:17;;;;;;;4.10;3.20;;;;;;;3.61;68.65;95079.59;4374567;32;20310;-59
2021/12/03 16:53:01;;;;;;;3.67;3.20;;;;;;;3.44;68.48;95071.91;4383364;32;26644;-60
2021/12/03 16:55:27;;;;;;;7.10;3.07;;;;;;;3.89;66.81;95070.53;4385161;32;20292;-59
2021/12/03 16:57:54;;;;;;;2.53;2.43;;;;;;;3.50;67.96;95086.63;4380810;32;20203;-59
2021/12/03 17:05:50;;;;;;;4.00;3.20;;;;;;;3.80;66.93;95091.22;4374226;32;20291;-59
2021/12/03 17:19:42;;;;;;;3.70;3.40;;;;;;;4.01;66.81;95090.25;4382401;32;20298;-59
2021/12/03 17:28:15;;;;;;;3.07;2.87;;;;;;;3.88;67.61;95080.25;4380703;32;20268;-59
2021/12/03 17:30:35;;;;;;;3.27;2.97;;;;;;;3.67;68.12;95076.75;4382697;32;20299;-59
2021/12/03 18:00:34;;;;;;;5.10;4.60;;;;;;;3.24;72.43;95041.13;4373424;32;20383;-59
2021/12/03 18:03:07;;;;;;;4.87;4.47;;;;;;;3.07;73.25;95043.12;4388997;32;20276;-59
2021/12/03 18:48:11;;;;;;;6.33;5.73;;;;;;;2.67;74.38;95035.78;4378702;32;20319;-59
2021/12/03 18:50:18;;;;;;;7.53;6.17;;;;;;;2.49;75.21;95023.87;4365664;32;20284;-59
2021/12/03 18:55:15;;;;;;;6.53;5.90;;;;;;;2.40;75.65;95005.22;4383834;32;20299;-59
2021/12/03 18:57:44;;;;;;;5.63;5.13;;;;;;;2.42;75.26;94997.09;4376961;32;20273;-59
2021/12/03 19:00:14;;;;;;;5.37;5.07;;;;;;;2.40;75.62;94999.19;4379498;32;20383;-59
2021/12/03 19:02:43;;;;;;;5.20;4.80;;;;;;;2.31;75.58;94998.06;4383397;32;20285;-59
2021/12/03 19:07:46;;;;;;;4.53;4.23;;;;;;;2.43;74.60;94988.22;4377934;32;20319;-59
2021/12/03 19:10:18;;;;;;;4.67;4.10;;;;;;;2.31;74.33;94971.88;4388871;32;20326;-64
2021/12/03 19:12:47;;;;;;;4.27;3.93;;;;;;;2.35;74.70;94978.19;4384146;32;20288;-60
2021/12/03 19:15:13;;;;;;;4.73;4.33;;;;;;;2.32;74.60;94978.69;4378221;32;20334;-60
2021/12/03 19:17:41;;;;;;;4.40;4.10;;;;;;;1.93;75.96;94972.88;4385303;32;20280;-59
2021/12/03 19:20:12;;;;;;;4.77;4.47;;;;;;;2.01;75.89;94968.00;4375052;32;20180;-59